Time;durP1;ratioP1;P1;durP2;ratioP2;P2;SDS_P1;SDS_P2;PMS_P1;PMS_P2;Temp;Humidity;BMP_temperature;BMP_pressure;BME280_temperature;BME280_humidity;BME280_pressure;Samples;Min_cycle;Max_cycle;Signal;HPM_P1;HPM_P2
2022/03/16 00:01:28;;;;;;;22.37;16.67;;;;;;;;;;5028336;28;20253;-60
2022/03/16 00:03:54;;;;;;;27.85;18.48;;;;;;;;;;5046229;28;20233;-60
2022/03/16 00:06:19;;;;;;;23.52;17.00;;;;;;;;;;5046254;28;20233;-60
2022/03/16 00:08:44;;;;;;;24.42;16.92;;;;;;;;;;5046286;28;20215;-60
2022/03/16 00:11:09;;;;;;;25.50;18.38;;;;;;;;;;5055597;28;20364;-60
2022/03/16 00:13:35;;;;;;;25.42;18.92;;;;;;;;;;5058748;28;20488;-60
2022/03/16 00:16:00;;;;;;;24.20;18.23;;;;;;;;;;5057303;28;20229;-60
2022/03/16 00:18:25;;;;;;;25.23;18.30;;;;;;;;;;5058403;28;20259;-60
2022/03/16 00:20:50;;;;;;;23.60;17.90;;;;;;;;;;5063837;28;20235;-60
2022/03/16 00:23:16;;;;;;;24.40;17.13;;;;;;;;;;5046446;28;20238;-60
2022/03/16 00:25:41;;;;;;;24.67;17.75;;;;;;;;;;5065635;28;20543;-60
2022/03/16 00:28:06;;;;;;;26.58;18.15;;;;;;;;;;5064689;28;20580;-60
2022/03/16 00:30:32;;;;;;;23.70;17.15;;;;;;;;;;5064902;28;20426;-60
2022/03/16 00:32:57;;;;;;;25.30;19.17;;;;;;;;;;5065430;28;20241;-60
2022/03/16 00:35:22;;;;;;;25.92;19.17;;;;;;;;;;5060807;28;20675;-60
2022/03/16 00:37:47;;;;;;;28.08;18.40;;;;;;;;;;5037086;28;20211;-60
2022/03/16 00:40:13;;;;;;;29.48;18.58;;;;;;;;;;5037643;28;20239;-60
2022/03/16 00:42:38;;;;;;;25.58;18.40;;;;;;;;;;5042174;28;20207;-60
2022/03/16 00:45:04;;;;;;;28.50;18.90;;;;;;;;;;5044969;28;20690;-60
2022/03/16 00:47:29;;;;;;;29.77;19.35;;;;;;;;;;5045907;28;20688;-60
2022/03/16 00:49:54;;;;;;;25.67;18.55;;;;;;;;;;5045846;28;20584;-60
2022/03/16 00:52:19;;;;;;;31.50;20.27;;;;;;;;;;5043041;28;20270;-60
2022/03/16 00:54:45;;;;;;;27.60;20.13;;;;;;;;;;5045734;28;20272;-60
2022/03/16 00:57:10;;;;;;;27.23;19.65;;;;;;;;;;5044946;28;20778;-60
2022/03/16 00:59:35;;;;;;;27.10;20.20;;;;;;;;;;5037779;28;20271;-60
2022/03/16 01:02:00;;;;;;;29.20;21.05;;;;;;;;;;5037408;28;20317;-60
2022/03/16 01:04:26;;;;;;;28.75;21.58;;;;;;;;;;5038073;28;20344;-60
2022/03/16 01:06:53;;;;;;;30.90;21.73;;;;;;;;;;5044862;28;20218;-60
2022/03/16 01:09:18;;;;;;;31.23;21.80;;;;;;;;;;5044840;28;20372;-60
2022/03/16 01:11:44;;;;;;;29.80;21.90;;;;;;;;;;5058990;28;20698;-60
2022/03/16 01:14:09;;;;;;;29.23;21.10;;;;;;;;;;5064167;28;20206;-60
2022/03/16 01:16:36;;;;;;;29.63;20.17;;;;;;;;;;5064432;28;20220;-60
2022/03/16 01:19:02;;;;;;;30.00;21.03;;;;;;;;;;5063439;28;20207;-60
2022/03/16 01:21:27;;;;;;;30.65;22.00;;;;;;;;;;5058484;28;20241;-60
2022/03/16 01:23:52;;;;;;;31.77;21.38;;;;;;;;;;5056764;28;20212;-60
2022/03/16 01:26:18;;;;;;;31.00;22.88;;;;;;;;;;5056095;28;20475;-60
2022/03/16 01:28:43;;;;;;;29.70;21.95;;;;;;;;;;5061785;28;20741;-60
2022/03/16 01:31:08;;;;;;;31.15;22.13;;;;;;;;;;5044647;28;20221;-60
2022/03/16 01:33:33;;;;;;;31.13;22.23;;;;;;;;;;5044218;28;20649;-60
2022/03/16 01:35:59;;;;;;;28.17;21.23;;;;;;;;;;5044840;28;20214;-60
2022/03/16 01:38:24;;;;;;;32.58;22.98;;;;;;;;;;5044451;28;20238;-60
2022/03/16 01:40:49;;;;;;;28.98;20.73;;;;;;;;;;5044818;28;20234;-60
2022/03/16 01:43:14;;;;;;;31.58;22.13;;;;;;;;;;5041970;28;20586;-60
2022/03/16 01:45:45;;;;;;;35.50;23.43;;;;;;;;;;5037583;28;20214;-60
2022/03/16 01:48:10;;;;;;;34.43;22.30;;;;;;;;;;5055336;28;21015;-60
2022/03/16 01:50:35;;;;;;;31.77;21.70;;;;;;;;;;5058821;28;20214;-60
2022/03/16 01:53:00;;;;;;;32.63;23.87;;;;;;;;;;5063568;28;20401;-61
2022/03/16 01:55:26;;;;;;;31.58;22.63;;;;;;;;;;5045628;28;20206;-60
2022/03/16 01:57:51;;;;;;;36.08;24.30;;;;;;;;;;5050122;28;20279;-60
2022/03/16 02:00:17;;;;;;;32.05;21.58;;;;;;;;;;5044196;28;20234;-60
2022/03/16 02:02:42;;;;;;;33.37;22.90;;;;;;;;;;5044077;28;20226;-60
2022/03/16 02:05:08;;;;;;;36.57;24.23;;;;;;;;;;5049536;28;20214;-60
2022/03/16 02:07:33;;;;;;;31.23;22.20;;;;;;;;;;5043954;28;20249;-60
2022/03/16 02:09:59;;;;;;;33.40;22.67;;;;;;;;;;5043413;28;20527;-60
2022/03/16 02:12:24;;;;;;;36.42;23.77;;;;;;;;;;5063129;28;20207;-60
2022/03/16 02:14:50;;;;;;;38.57;25.03;;;;;;;;;;5069107;28;20210;-60
2022/03/16 02:17:15;;;;;;;31.15;22.02;;;;;;;;;;5052211;28;20687;-60
2022/03/16 02:19:40;;;;;;;31.33;22.23;;;;;;;;;;5070742;28;20455;-60
2022/03/16 02:22:06;;;;;;;33.00;24.00;;;;;;;;;;5068722;28;20226;-60
2022/03/16 02:24:32;;;;;;;36.30;24.48;;;;;;;;;;5052363;28;20787;-60
2022/03/16 02:26:57;;;;;;;33.80;23.73;;;;;;;;;;5070464;28;20217;-60
2022/03/16 02:29:22;;;;;;;34.77;25.13;;;;;;;;;;5045247;28;21148;-60
2022/03/16 02:31:48;;;;;;;34.58;22.30;;;;;;;;;;5043612;28;20589;-60
2022/03/16 02:34:13;;;;;;;35.03;23.15;;;;;;;;;;5062048;28;20210;-60
2022/03/16 02:36:39;;;;;;;36.97;23.80;;;;;;;;;;5066280;28;20297;-60
2022/03/16 02:39:04;;;;;;;39.57;25.90;;;;;;;;;;5046986;28;20257;-60
2022/03/16 02:41:29;;;;;;;34.88;23.77;;;;;;;;;;5050882;28;20223;-60
2022/03/16 02:43:55;;;;;;;36.33;25.13;;;;;;;;;;5050225;28;20218;-60
2022/03/16 02:46:20;;;;;;;30.60;22.97;;;;;;;;;;5050507;28;20532;-60
2022/03/16 02:48:45;;;;;;;36.60;23.75;;;;;;;;;;5051143;28;20217;-60
2022/03/16 02:51:10;;;;;;;36.70;23.97;;;;;;;;;;5047183;28;20203;-60
2022/03/16 02:53:36;;;;;;;36.57;25.43;;;;;;;;;;5041517;28;20455;-60
2022/03/16 02:56:01;;;;;;;35.13;24.93;;;;;;;;;;5043015;28;20643;-60
2022/03/16 02:58:27;;;;;;;35.63;24.42;;;;;;;;;;5044588;28;20214;-60
2022/03/16 03:00:52;;;;;;;35.15;24.48;;;;;;;;;;5050604;28;20225;-60
2022/03/16 03:03:17;;;;;;;34.95;25.08;;;;;;;;;;5059510;28;20234;-60
2022/03/16 03:05:42;;;;;;;33.40;25.33;;;;;;;;;;5049990;28;20226;-60
2022/03/16 03:08:08;;;;;;;35.13;24.60;;;;;;;;;;5050063;28;20290;-60
2022/03/16 03:10:33;;;;;;;31.10;23.67;;;;;;;;;;5050941;28;20207;-60
2022/03/16 03:12:58;;;;;;;36.25;25.05;;;;;;;;;;5050218;28;20214;-60
2022/03/16 03:15:23;;;;;;;37.50;26.88;;;;;;;;;;5042638;28;20214;-60
2022/03/16 03:17:49;;;;;;;32.47;24.15;;;;;;;;;;5039950;28;20610;-60
2022/03/16 03:20:14;;;;;;;35.50;26.02;;;;;;;;;;5039342;28;20425;-60
2022/03/16 03:22:40;;;;;;;38.33;27.50;;;;;;;;;;5044811;28;20657;-60
2022/03/16 03:25:05;;;;;;;36.25;25.73;;;;;;;;;;5046269;28;20785;-59
2022/03/16 03:27:32;;;;;;;41.43;27.77;;;;;;;;;;5013124;28;20223;-59
2022/03/16 03:29:57;;;;;;;39.80;27.83;;;;;;;;;;5047388;28;20390;-59
2022/03/16 03:32:22;;;;;;;38.53;28.60;;;;;;;;;;5045861;28;20693;-59
2022/03/16 03:34:51;;;;;;;36.43;26.23;;;;;;;;;;5047376;28;20591;-59
2022/03/16 03:37:16;;;;;;;36.40;27.37;;;;;;;;;;5062134;28;20223;-59
2022/03/16 03:39:41;;;;;;;44.13;30.57;;;;;;;;;;5047902;28;20561;-59
2022/03/16 03:42:07;;;;;;;41.17;29.70;;;;;;;;;;5058214;28;20524;-59
2022/03/16 03:44:32;;;;;;;43.40;29.30;;;;;;;;;;5057841;28;20580;-59
2022/03/16 03:46:57;;;;;;;44.60;29.85;;;;;;;;;;5028114;28;20681;-59
2022/03/16 03:49:23;;;;;;;38.00;28.53;;;;;;;;;;5046236;28;20226;-59
2022/03/16 03:51:48;;;;;;;40.43;28.67;;;;;;;;;;5046143;28;20263;-59
2022/03/16 03:54:13;;;;;;;43.20;30.17;;;;;;;;;;5064767;28;20207;-59
2022/03/16 03:56:40;;;;;;;45.90;31.15;;;;;;;;;;5061682;28;20257;-59
2022/03/16 03:59:05;;;;;;;49.67;33.03;;;;;;;;;;5046136;28;20211;-59
2022/03/16 04:01:30;;;;;;;48.30;32.83;;;;;;;;;;5038157;28;20233;-59
2022/03/16 04:03:55;;;;;;;51.15;33.45;;;;;;;;;;5044079;28;20728;-59
2022/03/16 04:06:21;;;;;;;51.00;32.85;;;;;;;;;;5039609;28;20296;-59
2022/03/16 04:08:46;;;;;;;53.30;35.43;;;;;;;;;;5045120;28;20211;-59
2022/03/16 04:11:12;;;;;;;45.93;32.87;;;;;;;;;;5056023;28;20584;-59
2022/03/16 04:13:37;;;;;;;44.53;31.23;;;;;;;;;;5065805;28;20225;-59
2022/03/16 04:16:02;;;;;;;44.83;30.43;;;;;;;;;;5064900;28;20705;-59
2022/03/16 04:18:28;;;;;;;47.53;32.43;;;;;;;;;;5065417;28;20573;-59
2022/03/16 04:20:53;;;;;;;39.50;29.40;;;;;;;;;;5065802;28;20559;-59
2022/03/16 04:23:18;;;;;;;44.90;30.57;;;;;;;;;;5058485;28;20693;-59
2022/03/16 04:25:44;;;;;;;41.40;29.50;;;;;;;;;;5057679;28;20218;-59
2022/03/16 04:28:09;;;;;;;41.27;28.97;;;;;;;;;;5057828;28;20302;-59
2022/03/16 04:30:34;;;;;;;42.47;30.43;;;;;;;;;;5062209;28;20230;-59
2022/03/16 04:32:59;;;;;;;42.27;30.87;;;;;;;;;;5065271;28;20218;-59
2022/03/16 04:35:25;;;;;;;43.63;28.93;;;;;;;;;;5063989;28;20206;-59
2022/03/16 04:37:50;;;;;;;43.23;30.03;;;;;;;;;;5065075;28;20560;-59
2022/03/16 04:40:15;;;;;;;39.63;27.87;;;;;;;;;;5050220;28;20238;-59
2022/03/16 04:42:41;;;;;;;39.67;25.95;;;;;;;;;;5045374;28;20261;-59
2022/03/16 04:45:06;;;;;;;37.58;27.20;;;;;;;;;;5042767;28;20314;-60
2022/03/16 04:47:31;;;;;;;41.70;28.63;;;;;;;;;;5038150;28;20219;-59
2022/03/16 04:49:57;;;;;;;48.70;31.30;;;;;;;;;;5037577;28;20210;-59
2022/03/16 04:52:22;;;;;;;42.00;29.23;;;;;;;;;;5039772;28;20649;-59
2022/03/16 04:54:47;;;;;;;37.00;27.27;;;;;;;;;;5045465;28;20653;-59
2022/03/16 04:57:12;;;;;;;38.13;27.97;;;;;;;;;;5044857;28;20203;-59
2022/03/16 04:59:38;;;;;;;40.47;26.87;;;;;;;;;;5045516;28;20218;-59
2022/03/16 05:02:03;;;;;;;40.57;26.43;;;;;;;;;;5045552;28;20226;-59
2022/03/16 05:04:28;;;;;;;42.73;28.67;;;;;;;;;;5044795;28;20747;-59
2022/03/16 05:06:54;;;;;;;41.95;28.77;;;;;;;;;;5045646;28;20638;-59
2022/03/16 05:09:19;;;;;;;40.13;28.20;;;;;;;;;;5048661;28;20234;-59
2022/03/16 05:11:44;;;;;;;39.87;28.10;;;;;;;;;;5051408;28;20301;-59
2022/03/16 05:14:10;;;;;;;35.33;25.37;;;;;;;;;;5057320;28;20203;-60
2022/03/16 05:16:35;;;;;;;39.58;27.50;;;;;;;;;;5063640;28;20206;-59
2022/03/16 05:19:00;;;;;;;36.42;26.50;;;;;;;;;;5063318;28;20210;-59
2022/03/16 05:21:26;;;;;;;38.17;27.35;;;;;;;;;;5064283;28;20221;-60
2022/03/16 05:23:51;;;;;;;38.53;27.98;;;;;;;;;;5064333;28;20234;-59
2022/03/16 05:26:16;;;;;;;39.17;26.80;;;;;;;;;;5063483;28;20237;-59
2022/03/16 05:28:42;;;;;;;39.10;27.70;;;;;;;;;;5064650;28;20264;-59
2022/03/16 05:31:07;;;;;;;40.63;28.13;;;;;;;;;;5060307;28;20242;-60
2022/03/16 05:33:32;;;;;;;33.03;23.53;;;;;;;;;;5055779;28;20767;-59
2022/03/16 05:35:58;;;;;;;38.00;27.30;;;;;;;;;;5056514;28;20218;-60
2022/03/16 05:38:23;;;;;;;31.93;23.80;;;;;;;;;;5059119;28;20844;-59
2022/03/16 05:40:48;;;;;;;43.50;28.67;;;;;;;;;;5044767;28;20231;-59
2022/03/16 05:43:13;;;;;;;40.60;28.67;;;;;;;;;;5044548;28;20211;-59
2022/03/16 05:45:39;;;;;;;42.77;30.00;;;;;;;;;;5044571;28;20577;-60
2022/03/16 05:48:04;;;;;;;41.50;28.75;;;;;;;;;;5044652;28;20258;-59
2022/03/16 05:50:29;;;;;;;39.73;27.80;;;;;;;;;;5063635;28;20569;-59
2022/03/16 05:52:55;;;;;;;41.30;28.43;;;;;;;;;;5044924;28;20230;-59
2022/03/16 05:55:21;;;;;;;42.67;29.83;;;;;;;;;;5055857;28;20222;-60
2022/03/16 05:57:46;;;;;;;42.83;29.30;;;;;;;;;;5042947;28;20729;-59
2022/03/16 06:00:14;;;;;;;40.50;25.48;;;;;;;;;;5037302;28;20311;-59
2022/03/16 06:02:41;;;;;;;43.17;30.30;;;;;;;;;;5059250;28;20245;-60
2022/03/16 06:05:06;;;;;;;43.73;29.90;;;;;;;;;;5044096;28;20219;-59
2022/03/16 06:07:31;;;;;;;35.38;26.33;;;;;;;;;;5044314;28;20567;-58
2022/03/16 06:09:57;;;;;;;37.87;26.37;;;;;;;;;;5044394;28;20226;-60
2022/03/16 06:12:22;;;;;;;38.67;27.73;;;;;;;;;;5044475;28;20211;-59
2022/03/16 06:14:47;;;;;;;42.03;33.00;;;;;;;;;;5043164;28;20776;-65
2022/03/16 06:17:13;;;;;;;39.47;27.23;;;;;;;;;;5038664;28;20223;-65
2022/03/16 06:19:38;;;;;;;41.93;28.90;;;;;;;;;;5036792;28;20642;-71
2022/03/16 06:22:03;;;;;;;40.73;28.93;;;;;;;;;;5036026;28;20524;-64
2022/03/16 06:24:28;;;;;;;44.90;30.80;;;;;;;;;;5042186;28;20749;-66
2022/03/16 06:26:54;;;;;;;41.35;28.65;;;;;;;;;;5044306;28;20613;-66
2022/03/16 06:29:19;;;;;;;40.80;29.47;;;;;;;;;;5043595;28;20218;-66
2022/03/16 06:31:44;;;;;;;44.30;30.03;;;;;;;;;;5044572;28;20238;-66
2022/03/16 06:34:10;;;;;;;42.63;29.45;;;;;;;;;;5026437;28;20741;-65
2022/03/16 06:36:35;;;;;;;44.63;30.42;;;;;;;;;;5043771;28;20215;-65
2022/03/16 06:39:00;;;;;;;45.15;30.85;;;;;;;;;;5041516;28;20674;-64
2022/03/16 06:41:26;;;;;;;43.60;29.67;;;;;;;;;;5035363;28;20783;-65
2022/03/16 06:43:51;;;;;;;45.90;30.47;;;;;;;;;;5036006;28;20247;-66
2022/03/16 06:46:16;;;;;;;41.03;28.23;;;;;;;;;;5039629;28;20585;-66
2022/03/16 06:48:42;;;;;;;39.53;28.25;;;;;;;;;;5043978;28;20587;-65
2022/03/16 06:51:07;;;;;;;40.08;28.38;;;;;;;;;;5044504;28;20288;-64
2022/03/16 06:53:32;;;;;;;38.20;27.45;;;;;;;;;;5058412;28;20230;-65
2022/03/16 06:55:58;;;;;;;35.15;26.45;;;;;;;;;;5064853;28;20658;-66
2022/03/16 06:58:23;;;;;;;34.27;25.13;;;;;;;;;;5030189;28;20764;-64
2022/03/16 07:00:48;;;;;;;35.95;25.52;;;;;;;;;;5047515;28;20229;-64
2022/03/16 07:03:13;;;;;;;36.22;26.30;;;;;;;;;;5045191;28;20257;-57
2022/03/16 07:05:39;;;;;;;34.90;25.80;;;;;;;;;;5040190;28;20211;-58
2022/03/16 07:08:07;;;;;;;35.00;25.55;;;;;;;;;;5040011;28;20316;-58
2022/03/16 07:10:33;;;;;;;34.08;25.20;;;;;;;;;;5046195;28;20306;-58
2022/03/16 07:12:58;;;;;;;33.45;25.88;;;;;;;;;;5047559;28;20702;-58
2022/03/16 07:15:23;;;;;;;35.72;24.67;;;;;;;;;;5046913;28;20614;-58
2022/03/16 07:17:49;;;;;;;31.42;24.27;;;;;;;;;;5046966;28;20207;-58
2022/03/16 07:20:14;;;;;;;31.42;23.65;;;;;;;;;;5046745;28;20223;-59
2022/03/16 07:22:39;;;;;;;30.73;23.75;;;;;;;;;;5045099;28;20226;-60
2022/03/16 07:25:05;;;;;;;32.70;25.92;;;;;;;;;;5019745;28;20219;-60
2022/03/16 07:27:30;;;;;;;36.67;26.80;;;;;;;;;;5041088;28;20436;-60
2022/03/16 07:29:56;;;;;;;34.70;26.73;;;;;;;;;;5059703;28;20210;-60
2022/03/16 07:32:22;;;;;;;30.27;24.52;;;;;;;;;;5062683;28;20876;-60
2022/03/16 07:34:47;;;;;;;34.83;25.75;;;;;;;;;;5058335;28;20219;-60
2022/03/16 07:37:13;;;;;;;32.45;24.30;;;;;;;;;;5049038;28;20211;-60
2022/03/16 07:39:38;;;;;;;29.10;23.80;;;;;;;;;;5066255;28;20245;-60
2022/03/16 07:42:03;;;;;;;31.75;23.85;;;;;;;;;;5071886;28;20217;-60
2022/03/16 07:44:29;;;;;;;30.42;22.90;;;;;;;;;;5068324;28;20662;-60
2022/03/16 07:46:54;;;;;;;30.33;23.58;;;;;;;;;;5051420;28;20242;-60
2022/03/16 07:49:19;;;;;;;26.23;21.55;;;;;;;;;;5059499;28;20310;-60
2022/03/16 07:51:45;;;;;;;30.35;22.17;;;;;;;;;;5069076;28;20223;-60
2022/03/16 07:54:10;;;;;;;24.70;20.17;;;;;;;;;;5070859;28;20219;-60
2022/03/16 07:56:35;;;;;;;28.13;20.83;;;;;;;;;;5067706;28;20638;-60
2022/03/16 07:59:01;;;;;;;26.52;20.83;;;;;;;;;;5062339;28;20213;-59
2022/03/16 08:01:27;;;;;;;25.52;19.45;;;;;;;;;;5062219;28;20222;-60
2022/03/16 08:03:53;;;;;;;26.77;19.88;;;;;;;;;;5072013;28;20281;-60
2022/03/16 08:06:18;;;;;;;24.98;18.88;;;;;;;;;;5070672;28;20221;-60
2022/03/16 08:08:43;;;;;;;22.67;17.75;;;;;;;;;;5071298;28;20597;-60
2022/03/16 08:11:09;;;;;;;21.27;15.98;;;;;;;;;;5061466;28;20215;-60
2022/03/16 08:13:36;;;;;;;23.42;16.10;;;;;;;;;;5051091;28;20235;-60
2022/03/16 08:16:01;;;;;;;19.88;15.07;;;;;;;;;;5051167;28;20207;-61
2022/03/16 08:18:27;;;;;;;20.73;14.52;;;;;;;;;;5051812;28;20217;-60
2022/03/16 08:20:52;;;;;;;20.00;14.75;;;;;;;;;;5050926;28;20298;-60
2022/03/16 08:23:17;;;;;;;21.42;15.68;;;;;;;;;;5051144;28;20215;-60
2022/03/16 08:25:43;;;;;;;19.65;13.10;;;;;;;;;;5051288;28;20211;-59
2022/03/16 08:28:08;;;;;;;19.30;13.93;;;;;;;;;;5050164;28;20207;-60
2022/03/16 08:30:34;;;;;;;20.48;14.02;;;;;;;;;;5051459;28;20222;-59
2022/03/16 08:33:00;;;;;;;19.30;15.00;;;;;;;;;;5051547;28;20234;-60
2022/03/16 08:35:25;;;;;;;19.17;13.90;;;;;;;;;;5050311;28;20234;-60
2022/03/16 08:37:50;;;;;;;18.25;12.77;;;;;;;;;;5060040;28;20203;-60
2022/03/16 08:40:16;;;;;;;19.13;12.45;;;;;;;;;;5050704;28;20234;-59
2022/03/16 08:42:42;;;;;;;20.08;12.57;;;;;;;;;;5054218;28;20215;-60
2022/03/16 08:45:07;;;;;;;18.42;11.90;;;;;;;;;;5057099;28;20203;-60
2022/03/16 08:47:33;;;;;;;16.73;12.10;;;;;;;;;;5071299;28;20734;-59
2022/03/16 08:49:58;;;;;;;55.85;49.90;;;;;;;;;;5050293;28;20221;-59
2022/03/16 08:52:23;;;;;;;18.27;13.00;;;;;;;;;;5070386;28;20255;-60
2022/03/16 08:54:50;;;;;;;16.60;11.05;;;;;;;;;;5070523;28;20211;-60
2022/03/16 08:57:15;;;;;;;17.45;11.45;;;;;;;;;;5069894;28;20705;-60
2022/03/16 08:59:41;;;;;;;14.27;10.55;;;;;;;;;;5062131;28;20215;-60
2022/03/16 09:02:07;;;;;;;15.07;11.60;;;;;;;;;;5076640;28;20256;-60
2022/03/16 09:04:34;;;;;;;14.45;10.65;;;;;;;;;;5090231;28;20206;-60
2022/03/16 09:06:59;;;;;;;14.07;10.27;;;;;;;;;;5090931;28;20300;-60
2022/03/16 09:09:25;;;;;;;15.52;10.75;;;;;;;;;;5090102;28;20218;-60
2022/03/16 09:11:50;;;;;;;13.68;10.50;;;;;;;;;;5090143;28;20214;-60
2022/03/16 09:14:15;;;;;;;15.45;11.05;;;;;;;;;;5088903;28;20296;-60
2022/03/16 09:16:40;;;;;;;12.95;9.55;;;;;;;;;;5089374;28;20699;-60
2022/03/16 09:19:06;;;;;;;17.02;10.25;;;;;;;;;;5090224;28;20213;-60
2022/03/16 09:21:31;;;;;;;12.45;10.13;;;;;;;;;;5090942;28;20692;-60
2022/03/16 09:23:56;;;;;;;12.85;9.35;;;;;;;;;;5089445;28;20245;-60
2022/03/16 09:26:21;;;;;;;12.40;9.68;;;;;;;;;;5072093;28;20292;-60
2022/03/16 09:28:47;;;;;;;14.63;9.45;;;;;;;;;;5090349;28;20210;-60
2022/03/16 09:31:13;;;;;;;13.38;9.98;;;;;;;;;;5089489;28;20568;-59
2022/03/16 09:33:38;;;;;;;14.48;9.82;;;;;;;;;;5090820;28;20218;-60
2022/03/16 09:36:08;;;;;;;12.55;8.88;;;;;;;;;;5090098;28;20217;-60
2022/03/16 09:38:33;;;;;;;14.50;10.27;;;;;;;;;;5089575;28;20206;-60
2022/03/16 09:41:00;;;;;;;14.55;9.32;;;;;;;;;;5090153;28;20232;-59
2022/03/16 09:43:25;;;;;;;11.43;9.20;;;;;;;;;;5089945;28;20209;-59
2022/03/16 09:45:53;;;;;;;11.85;9.38;;;;;;;;;;5073836;28;20244;-59
2022/03/16 09:48:19;;;;;;;12.68;9.50;;;;;;;;;;5065241;28;20214;-60
2022/03/16 09:50:44;;;;;;;12.80;8.88;;;;;;;;;;5050171;28;20216;-60
2022/03/16 09:53:10;;;;;;;14.27;9.45;;;;;;;;;;5030806;28;20249;-60
2022/03/16 09:55:35;;;;;;;11.50;9.40;;;;;;;;;;5049681;28;20286;-60
2022/03/16 09:58:00;;;;;;;11.70;8.95;;;;;;;;;;5050168;28;20654;-60
2022/03/16 10:00:26;;;;;;;12.75;9.20;;;;;;;;;;5063398;28;20712;-60
2022/03/16 10:02:52;;;;;;;12.45;9.43;;;;;;;;;;5069635;28;20242;-60
2022/03/16 10:05:19;;;;;;;11.82;9.02;;;;;;;;;;5069778;28;20233;-60
2022/03/16 10:07:45;;;;;;;13.63;9.85;;;;;;;;;;5051482;28;20211;-60
2022/03/16 10:15:38;;;;;;;14.05;9.73;;;;;;;;;;5069438;28;20226;-60
2022/03/16 10:18:04;;;;;;;11.77;9.77;;;;;;;;;;5066654;28;20207;-60
2022/03/16 10:20:31;;;;;;;12.98;10.35;;;;;;;;;;5048575;28;20238;-60
2022/03/16 10:22:59;;;;;;;12.57;9.65;;;;;;;;;;5031682;28;20210;-59
2022/03/16 10:25:25;;;;;;;11.73;9.48;;;;;;;;;;5051295;28;20217;-60
2022/03/16 10:27:50;;;;;;;13.57;9.50;;;;;;;;;;5053223;28;20215;-60
2022/03/16 10:30:16;;;;;;;13.60;9.57;;;;;;;;;;5053598;28;20227;-60
2022/03/16 10:32:52;;;;;;;11.75;9.40;;;;;;;;;;5053755;28;20378;-60
2022/03/16 10:35:17;;;;;;;13.18;9.30;;;;;;;;;;5052336;28;20217;-59
2022/03/16 10:37:43;;;;;;;14.02;9.05;;;;;;;;;;5065755;28;20265;-59
2022/03/16 10:40:14;;;;;;;11.70;9.48;;;;;;;;;;5073126;28;20218;-60
2022/03/16 10:48:14;;;;;;;11.07;9.23;;;;;;;;;;5052196;28;20318;-59
2022/03/16 10:50:40;;;;;;;14.02;10.40;;;;;;;;;;5070856;28;20222;-59
2022/03/16 10:53:06;;;;;;;13.20;9.50;;;;;;;;;;5072520;28;20340;-59
2022/03/16 10:55:31;;;;;;;10.82;8.75;;;;;;;;;;5072684;28;20285;-59
2022/03/16 10:57:56;;;;;;;11.30;9.38;;;;;;;;;;5073420;28;20218;-59
2022/03/16 11:00:22;;;;;;;11.98;9.50;;;;;;;;;;5058375;28;20361;-59
2022/03/16 11:02:47;;;;;;;11.55;9.00;;;;;;;;;;5034467;28;20588;-59
2022/03/16 11:05:17;;;;;;;11.57;9.35;;;;;;;;;;5034849;28;20222;-60
2022/03/16 11:07:43;;;;;;;13.38;10.05;;;;;;;;;;5052879;28;20592;-59
2022/03/16 11:10:08;;;;;;;13.10;9.45;;;;;;;;;;5052133;28;20215;-59
2022/03/16 11:15:19;;;;;;;13.93;9.25;;;;;;;;;;5052417;28;20226;-59
2022/03/16 11:17:44;;;;;;;12.15;8.60;;;;;;;;;;5051915;28;20211;-60
2022/03/16 11:20:10;;;;;;;11.85;9.18;;;;;;;;;;5052292;28;20226;-59
2022/03/16 11:25:43;;;;;;;10.88;7.53;;;;;;;;;;5052440;28;20236;-59
2022/03/16 11:28:09;;;;;;;11.38;7.97;;;;;;;;;;5034516;28;20280;-59
2022/03/16 11:30:36;;;;;;;10.50;8.40;;;;;;;;;;5034192;28;20679;-59
2022/03/16 11:33:02;;;;;;;11.63;8.25;;;;;;;;;;5052231;28;20218;-60
2022/03/16 11:35:30;;;;;;;10.38;8.48;;;;;;;;;;5034686;28;20205;-59
2022/03/16 11:37:55;;;;;;;13.40;8.38;;;;;;;;;;5050773;28;20288;-59
2022/03/16 11:40:22;;;;;;;10.75;7.70;;;;;;;;;;5034138;28;20289;-60
2022/03/16 11:43:00;;;;;;;12.38;7.85;;;;;;;;;;5034520;28;20340;-59
2022/03/16 11:45:39;;;;;;;11.75;7.93;;;;;;;;;;5063139;28;20510;-59
2022/03/16 11:48:22;;;;;;;11.27;7.90;;;;;;;;;;5069760;28;20210;-59
2022/03/16 11:51:15;;;;;;;9.35;7.60;;;;;;;;;;5052435;28;20302;-59
2022/03/16 11:53:43;;;;;;;9.38;7.40;;;;;;;;;;5033185;28;20245;-59
2022/03/16 11:56:17;;;;;;;10.35;7.28;;;;;;;;;;5058627;28;20214;-59
2022/03/16 11:58:43;;;;;;;9.75;7.70;;;;;;;;;;5069491;28;20586;-59
2022/03/16 12:01:23;;;;;;;10.05;7.20;;;;;;;;;;5071309;28;20230;-59
2022/03/16 12:03:52;;;;;;;10.27;6.97;;;;;;;;;;5053486;28;20221;-59
2022/03/16 12:06:19;;;;;;;9.23;7.25;;;;;;;;;;5050809;28;20211;-59
2022/03/16 12:08:51;;;;;;;10.55;7.05;;;;;;;;;;5051332;28;20249;-59
2022/03/16 12:14:04;;;;;;;10.27;7.30;;;;;;;;;;5035948;28;20257;-59
2022/03/16 12:16:39;;;;;;;11.30;8.13;;;;;;;;;;5050224;28;20213;-59
2022/03/16 12:19:24;;;;;;;10.52;7.25;;;;;;;;;;5051074;28;20222;-59
2022/03/16 12:21:50;;;;;;;10.65;7.18;;;;;;;;;;5049852;28;20310;-59
2022/03/16 12:29:48;;;;;;;9.55;7.22;;;;;;;;;;5044733;28;20225;-59
2022/03/16 12:32:19;;;;;;;10.05;6.65;;;;;;;;;;5069051;28;20210;-59
2022/03/16 12:34:44;;;;;;;9.20;7.05;;;;;;;;;;5070839;28;20268;-58
2022/03/16 12:37:11;;;;;;;8.93;7.10;;;;;;;;;;5052905;28;20311;-59
2022/03/16 12:39:43;;;;;;;11.35;7.03;;;;;;;;;;5071391;28;20211;-59
2022/03/16 12:44:55;;;;;;;10.15;7.05;;;;;;;;;;5063800;28;20261;-58
2022/03/16 12:47:25;;;;;;;10.80;6.80;;;;;;;;;;5050754;28;20581;-59
2022/03/16 12:49:50;;;;;;;11.38;6.82;;;;;;;;;;5056352;28;20215;-58
2022/03/16 12:52:17;;;;;;;10.15;6.82;;;;;;;;;;5050202;28;20310;-59
2022/03/16 12:54:42;;;;;;;8.25;6.85;;;;;;;;;;5050443;28;20310;-59
2022/03/16 12:57:09;;;;;;;15.48;8.00;;;;;;;;;;5050587;28;20350;-59
2022/03/16 12:59:36;;;;;;;9.15;7.15;;;;;;;;;;5040583;28;20214;-59
2022/03/16 13:02:04;;;;;;;8.70;6.97;;;;;;;;;;5069564;28;20301;-59
2022/03/16 13:04:29;;;;;;;10.25;7.07;;;;;;;;;;5070696;28;20210;-59
2022/03/16 13:06:56;;;;;;;11.88;7.07;;;;;;;;;;5070714;28;20210;-59
2022/03/16 13:09:21;;;;;;;10.75;7.90;;;;;;;;;;5069251;28;20215;-59
2022/03/16 13:11:47;;;;;;;10.32;7.80;;;;;;;;;;5052826;28;20568;-59
2022/03/16 13:14:16;;;;;;;9.98;7.72;;;;;;;;;;5069763;28;20237;-59
2022/03/16 13:16:43;;;;;;;11.63;7.70;;;;;;;;;;5038506;28;20225;-59
2022/03/16 13:19:11;;;;;;;12.30;8.20;;;;;;;;;;5049985;28;20294;-59
2022/03/16 13:21:36;;;;;;;10.80;7.40;;;;;;;;;;5051767;28;20229;-58
2022/03/16 13:24:07;;;;;;;10.70;7.38;;;;;;;;;;5049105;28;20211;-59
2022/03/16 13:26:33;;;;;;;10.23;7.20;;;;;;;;;;5050555;28;20223;-58
2022/03/16 13:28:58;;;;;;;13.05;7.47;;;;;;;;;;5050124;28;20678;-59
2022/03/16 13:31:25;;;;;;;11.13;7.70;;;;;;;;;;5049345;28;20245;-59
2022/03/16 13:33:50;;;;;;;12.63;7.85;;;;;;;;;;5050592;28;20218;-59
2022/03/16 13:36:15;;;;;;;12.40;7.60;;;;;;;;;;5050010;28;20627;-59
2022/03/16 13:38:41;;;;;;;9.95;7.90;;;;;;;;;;5049533;28;20511;-59
2022/03/16 13:41:10;;;;;;;10.70;7.32;;;;;;;;;;5049841;28;20599;-59
2022/03/16 13:43:36;;;;;;;11.52;6.78;;;;;;;;;;5050084;28;20215;-59
2022/03/16 13:46:01;;;;;;;9.63;7.00;;;;;;;;;;5065802;28;20230;-59
2022/03/16 13:48:28;;;;;;;12.02;7.57;;;;;;;;;;5064912;28;20261;-58
2022/03/16 13:50:55;;;;;;;9.35;6.80;;;;;;;;;;5049445;28;20303;-58
2022/03/16 13:53:27;;;;;;;11.00;7.53;;;;;;;;;;5049218;28;20751;-59
2022/03/16 13:55:53;;;;;;;10.77;7.05;;;;;;;;;;5032589;28;20214;-58
2022/03/16 13:58:20;;;;;;;10.93;7.53;;;;;;;;;;5049050;28;20294;-59
2022/03/16 14:00:47;;;;;;;9.00;7.55;;;;;;;;;;5066619;28;20228;-59
2022/03/16 14:03:13;;;;;;;8.32;6.68;;;;;;;;;;5069782;28;20221;-58
2022/03/16 14:05:40;;;;;;;11.00;6.85;;;;;;;;;;5069286;28;20582;-59
2022/03/16 14:08:06;;;;;;;10.70;7.40;;;;;;;;;;5069037;28;20690;-59
2022/03/16 14:10:33;;;;;;;10.40;7.25;;;;;;;;;;5070159;28;20245;-59
2022/03/16 14:13:02;;;;;;;8.90;6.90;;;;;;;;;;5068855;28;20230;-59
2022/03/16 14:15:28;;;;;;;10.10;6.97;;;;;;;;;;5069456;28;20700;-59
2022/03/16 14:17:57;;;;;;;10.13;7.45;;;;;;;;;;5069888;28;20210;-59
2022/03/16 14:20:26;;;;;;;10.65;7.20;;;;;;;;;;5068709;28;20249;-59
2022/03/16 14:22:52;;;;;;;9.57;7.10;;;;;;;;;;5069770;28;20212;-59
2022/03/16 14:25:25;;;;;;;8.90;7.18;;;;;;;;;;5069557;28;20217;-58
2022/03/16 14:27:52;;;;;;;9.48;7.20;;;;;;;;;;5051110;28;20234;-59
2022/03/16 14:30:18;;;;;;;10.77;7.22;;;;;;;;;;5069121;28;20214;-58
2022/03/16 14:32:47;;;;;;;9.80;7.00;;;;;;;;;;5069807;28;20207;-59
2022/03/16 14:35:12;;;;;;;9.85;7.38;;;;;;;;;;5068430;28;20685;-59
2022/03/16 14:37:38;;;;;;;10.05;7.40;;;;;;;;;;5068795;28;20211;-59
2022/03/16 14:40:04;;;;;;;9.45;7.03;;;;;;;;;;5069074;28;20218;-59
2022/03/16 14:42:29;;;;;;;10.20;7.47;;;;;;;;;;5069076;28;20579;-59